Time;durP1;ratioP1;P1;durP2;ratioP2;P2;SDS_P1;SDS_P2;PMS_P1;PMS_P2;Temp;Humidity;BMP_temperature;BMP_pressure;BME280_temperature;BME280_humidity;BME280_pressure;Samples;Min_cycle;Max_cycle;Signal;HPM_P1;HPM_P2
2022/04/10 00:01:06;;;;;;;12.45;7.05;;;5.30;99.90;;;;;;5006383;28;20044;-69
2022/04/10 00:03:35;;;;;;;12.40;6.72;;;5.30;99.90;;;;;;5006589;28;20022;-74
2022/04/10 00:06:01;;;;;;;14.65;7.85;;;5.30;99.90;;;;;;5009552;28;20025;-71
2022/04/10 00:08:27;;;;;;;12.57;6.40;;;5.30;99.90;;;;;;5010872;28;20376;-68
2022/04/10 00:10:54;;;;;;;12.80;6.35;;;5.20;99.90;;;;;;5009599;28;20105;-68
2022/04/10 00:13:23;;;;;;;11.10;6.65;;;5.20;99.90;;;;;;5008143;28;20029;-74
2022/04/10 00:15:49;;;;;;;15.35;7.32;;;5.20;99.90;;;;;;5022753;28;20030;-70
2022/04/10 00:18:15;;;;;;;12.85;6.65;;;5.20;99.90;;;;;;5006120;28;20041;-68
2022/04/10 00:20:41;;;;;;;10.82;5.60;;;5.10;99.90;;;;;;5004049;28;20026;-68
2022/04/10 00:23:09;;;;;;;14.15;6.55;;;5.00;99.90;;;;;;5005235;28;20030;-72
2022/04/10 00:25:35;;;;;;;11.15;5.50;;;4.90;99.90;;;;;;5010199;28;20053;-67
2022/04/10 00:28:01;;;;;;;12.50;6.45;;;4.70;99.90;;;;;;5000083;28;20404;-68
2022/04/10 00:30:27;;;;;;;14.48;7.55;;;4.70;99.90;;;;;;4992774;28;20175;-67
2022/04/10 00:32:53;;;;;;;9.48;5.15;;;4.50;99.90;;;;;;4989068;28;20112;-73
2022/04/10 00:35:19;;;;;;;13.13;6.13;;;4.50;99.90;;;;;;4990779;28;20444;-74
2022/04/10 00:37:50;;;;;;;10.45;5.85;;;4.40;99.90;;;;;;5003463;28;20029;-69
2022/04/10 00:40:16;;;;;;;10.63;6.78;;;4.30;99.90;;;;;;5016259;28;20018;-69
2022/04/10 00:42:48;;;;;;;10.95;6.53;;;4.20;99.90;;;;;;5020912;28;20484;-70
2022/04/10 00:45:16;;;;;;;10.60;5.80;;;4.10;99.90;;;;;;5008777;28;20534;-74
2022/04/10 00:47:44;;;;;;;15.15;7.32;;;4.20;99.90;;;;;;5007796;28;20038;-71
2022/04/10 00:50:13;;;;;;;11.50;6.30;;;4.10;99.90;;;;;;5007713;28;20052;-75
2022/04/10 00:52:42;;;;;;;10.63;6.22;;;4.10;99.90;;;;;;5023123;28;20037;-71
2022/04/10 00:55:22;;;;;;;11.77;6.75;;;4.10;99.90;;;;;;5007913;28;20026;-73
2022/04/10 00:58:00;;;;;;;16.88;8.73;;;4.10;99.90;;;;;;5024571;28;20044;-75
2022/04/10 01:00:36;;;;;;;18.75;8.18;;;4.10;99.90;;;;;;5009925;28;20199;-68
2022/04/10 01:03:18;;;;;;;12.65;7.20;;;4.10;99.90;;;;;;5022511;28;20034;-75
2022/04/10 01:05:51;;;;;;;12.90;6.63;;;4.10;99.90;;;;;;5008029;28;20033;-71
2022/04/10 01:08:20;;;;;;;12.23;6.93;;;4.10;99.90;;;;;;5016056;28;20541;-74
2022/04/10 01:11:11;;;;;;;;;;;4.20;99.90;;;;;;5028794;28;20415;-73
2022/04/10 01:13:39;;;;;;;12.73;6.85;;;4.20;99.90;;;;;;5009634;28;19948;-70
2022/04/10 01:16:21;;;;;;;14.73;7.25;;;4.30;99.90;;;;;;5013739;28;20062;-74
2022/04/10 01:18:51;;;;;;;13.63;7.65;;;4.30;99.90;;;;;;4996648;28;20045;-74
2022/04/10 01:21:29;;;;;;;18.20;8.70;;;4.40;99.90;;;;;;5028617;28;20057;-72
2022/04/10 01:24:04;;;;;;;16.60;9.25;;;4.40;99.90;;;;;;5012844;28;20088;-71
2022/04/10 01:26:30;;;;;;;13.73;7.55;;;4.50;99.90;;;;;;5015506;28;20116;-72
2022/04/10 01:29:10;;;;;;;14.65;7.85;;;4.60;99.90;;;;;;5021582;28;20025;-74
2022/04/10 01:31:45;;;;;;;13.38;7.93;;;4.70;99.90;;;;;;5013935;28;20396;-69
2022/04/10 01:34:22;;;;;;;15.20;7.75;;;4.70;99.90;;;;;;5028133;28;20549;-69
2022/04/10 01:36:50;;;;;;;20.52;10.68;;;4.70;99.90;;;;;;5013667;28;20045;-75
2022/04/10 01:39:22;;;;;;;16.35;8.02;;;4.80;99.90;;;;;;5015674;28;20029;-68
2022/04/10 01:42:14;;;;;;;13.20;7.57;;;4.80;99.90;;;;;;4999222;28;20068;-74
2022/04/10 01:45:18;;;;;;;15.02;7.70;;;4.90;99.90;;;;;;4989805;28;20531;-74
2022/04/10 01:47:44;;;;;;;12.27;6.70;;;4.90;99.90;;;;;;5014781;28;20069;-74
2022/04/10 01:50:23;;;;;;;11.73;6.40;;;4.80;99.90;;;;;;5031468;28;20112;-76
2022/04/10 01:52:51;;;;;;;14.88;6.28;;;4.90;99.90;;;;;;5029979;28;20033;-73
2022/04/10 01:55:47;;;;;;;12.05;6.65;;;4.90;99.90;;;;;;5013962;28;20504;-72
2022/04/10 01:58:14;;;;;;;13.82;7.07;;;4.90;99.90;;;;;;5013642;28;20029;-72
2022/04/10 02:00:41;;;;;;;12.95;6.57;;;4.90;99.90;;;;;;5014301;28;20058;-74
2022/04/10 02:03:07;;;;;;;12.32;6.85;;;4.90;99.90;;;;;;5031562;28;20029;-70
2022/04/10 02:05:33;;;;;;;15.88;7.13;;;4.90;99.90;;;;;;5023193;28;20092;-74
2022/04/10 02:08:01;;;;;;;16.20;6.22;;;4.90;99.90;;;;;;5031240;28;20034;-69
2022/04/10 02:10:27;;;;;;;15.77;7.53;;;4.90;99.90;;;;;;5014809;28;20026;-73
2022/04/10 02:12:55;;;;;;;13.35;6.32;;;4.90;99.90;;;;;;5030593;28;20034;-74
2022/04/10 02:15:21;;;;;;;14.05;6.68;;;4.90;99.90;;;;;;4997954;28;20021;-69
2022/04/10 02:17:47;;;;;;;15.32;7.55;;;4.90;99.90;;;;;;4997374;28;20400;-71
2022/04/10 02:20:13;;;;;;;13.35;6.45;;;5.00;99.90;;;;;;5011832;28;20026;-73
2022/04/10 02:22:54;;;;;;;14.30;6.72;;;4.90;99.90;;;;;;5010087;28;20061;-74
2022/04/10 02:25:20;;;;;;;12.93;5.72;;;4.90;99.90;;;;;;5003262;28;20026;-76
2022/04/10 02:27:50;;;;;;;12.65;6.60;;;4.90;99.90;;;;;;5027240;28;20041;-68
2022/04/10 02:30:18;;;;;;;11.15;6.20;;;5.00;99.90;;;;;;5027417;28;20072;-72
2022/04/10 02:32:45;;;;;;;10.75;5.88;;;5.00;99.90;;;;;;5027596;28;20026;-72
2022/04/10 02:35:11;;;;;;;17.75;9.07;;;4.90;99.90;;;;;;4986910;28;20041;-68
2022/04/10 02:37:38;;;;;;;9.80;5.20;;;5.00;99.90;;;;;;5027307;28;20026;-70
2022/04/10 02:40:05;;;;;;;6.60;4.10;;;4.90;99.90;;;;;;5011455;28;20030;-71
2022/04/10 02:42:33;;;;;;;8.57;4.07;;;4.80;99.90;;;;;;5027414;28;20045;-73
2022/04/10 02:45:05;;;;;;;7.50;4.80;;;4.70;99.90;;;;;;5027989;28;20025;-72
2022/04/10 02:47:31;;;;;;;8.95;4.70;;;4.50;99.90;;;;;;5009358;28;20496;-71
2022/04/10 02:49:58;;;;;;;7.22;4.47;;;4.40;99.90;;;;;;5009481;28;20069;-71
2022/04/10 02:52:24;;;;;;;10.18;5.43;;;4.40;99.90;;;;;;5012169;28;20061;-74
2022/04/10 02:54:51;;;;;;;8.80;5.43;;;4.30;99.90;;;;;;5011209;28;20037;-71
2022/04/10 02:57:17;;;;;;;10.55;5.53;;;4.20;99.90;;;;;;5010651;28;20029;-74
2022/04/10 02:59:43;;;;;;;11.60;6.25;;;4.20;99.90;;;;;;5012429;28;20025;-71
2022/04/10 03:02:10;;;;;;;8.30;5.75;;;4.30;99.90;;;;;;5026932;28;20042;-74
2022/04/10 03:04:36;;;;;;;9.65;5.50;;;4.20;99.90;;;;;;4994028;28;20029;-69
2022/04/10 03:07:03;;;;;;;10.40;6.03;;;4.20;99.90;;;;;;5010423;28;20025;-74
2022/04/10 03:09:30;;;;;;;11.35;6.10;;;4.10;99.90;;;;;;5027423;28;20025;-75
2022/04/10 03:11:56;;;;;;;12.07;6.45;;;4.20;99.90;;;;;;5026805;28;20069;-68
2022/04/10 03:14:21;;;;;;;9.48;5.43;;;4.10;99.90;;;;;;5010293;28;20083;-70
2022/04/10 03:16:48;;;;;;;9.43;5.68;;;4.10;99.90;;;;;;5010370;28;20032;-72
2022/04/10 03:19:16;;;;;;;8.70;5.28;;;4.10;99.90;;;;;;5026347;28;20133;-76
2022/04/10 03:21:42;;;;;;;9.70;5.03;;;4.10;99.90;;;;;;5009736;28;20038;-75
2022/04/10 03:24:08;;;;;;;10.57;5.88;;;4.00;99.90;;;;;;5026745;28;20022;-72
2022/04/10 03:26:34;;;;;;;9.13;5.25;;;4.10;99.90;;;;;;5026363;28;20018;-75
2022/04/10 03:29:02;;;;;;;11.98;6.43;;;4.00;99.90;;;;;;5009923;28;20108;-73
2022/04/10 03:31:28;;;;;;;13.80;6.30;;;4.10;99.90;;;;;;5009932;28;20168;-71
2022/04/10 03:33:55;;;;;;;9.93;6.00;;;4.00;99.90;;;;;;5026277;28;20017;-71
2022/04/10 03:36:22;;;;;;;11.55;5.53;;;4.00;99.90;;;;;;5010207;28;20476;-67
2022/04/10 03:38:48;;;;;;;11.82;6.18;;;4.00;99.90;;;;;;5009726;28;20029;-71
2022/04/10 03:41:14;;;;;;;10.63;5.47;;;4.10;99.90;;;;;;5026060;28;20037;-70
2022/04/10 03:43:40;;;;;;;9.68;5.18;;;4.10;99.90;;;;;;5009905;28;20121;-69
2022/04/10 03:46:06;;;;;;;12.23;6.30;;;4.10;99.90;;;;;;5026343;28;20022;-68
2022/04/10 03:48:33;;;;;;;9.38;5.38;;;4.10;99.90;;;;;;5026197;28;20062;-70
2022/04/10 03:51:00;;;;;;;10.50;6.18;;;4.10;99.90;;;;;;5025929;28;20076;-68
2022/04/10 03:53:26;;;;;;;9.25;5.82;;;4.10;99.90;;;;;;4993531;28;20531;-70
2022/04/10 03:55:56;;;;;;;11.02;5.72;;;4.10;99.90;;;;;;5008036;28;20109;-72
2022/04/10 03:58:22;;;;;;;11.23;6.18;;;4.10;99.90;;;;;;5009476;28;20036;-74
2022/04/10 04:00:48;;;;;;;10.18;6.07;;;4.10;99.90;;;;;;5026075;28;20030;-75
2022/04/10 04:03:15;;;;;;;7.50;5.00;;;4.10;99.90;;;;;;5009410;28;20025;-75
2022/04/10 04:05:42;;;;;;;10.10;5.63;;;4.20;99.90;;;;;;5010138;28;20061;-72
2022/04/10 04:08:11;;;;;;;11.25;6.05;;;4.20;99.90;;;;;;5023700;28;20034;-73
2022/04/10 04:10:37;;;;;;;7.97;5.30;;;4.20;99.90;;;;;;5009009;28;20026;-68
2022/04/10 04:13:05;;;;;;;10.48;6.57;;;4.20;99.90;;;;;;5009043;28;20023;-75
2022/04/10 04:15:35;;;;;;;10.68;6.30;;;4.30;99.90;;;;;;5026302;28;20054;-76
2022/04/10 04:18:01;;;;;;;10.68;5.95;;;4.30;99.90;;;;;;5026009;28;20125;-70
2022/04/10 04:20:30;;;;;;;10.50;6.95;;;4.30;99.90;;;;;;5007586;28;20032;-74
2022/04/10 04:22:58;;;;;;;12.20;5.72;;;4.40;99.90;;;;;;5023428;28;20065;-69
2022/04/10 04:25:25;;;;;;;11.05;6.30;;;4.40;99.90;;;;;;5009175;28;20439;-72
2022/04/10 04:27:54;;;;;;;11.43;6.10;;;4.40;99.90;;;;;;5025331;28;20549;-70
2022/04/10 04:30:20;;;;;;;10.07;5.45;;;4.50;99.90;;;;;;5009515;28;20017;-73
2022/04/10 04:32:51;;;;;;;9.88;5.75;;;4.50;99.90;;;;;;5025375;28;20030;-68
2022/04/10 04:35:18;;;;;;;11.27;6.20;;;4.60;99.90;;;;;;5007991;28;20029;-73
2022/04/10 04:37:44;;;;;;;9.40;5.53;;;4.60;99.90;;;;;;5025261;28;20033;-74
2022/04/10 04:40:15;;;;;;;11.77;5.80;;;4.60;99.90;;;;;;5008146;28;20029;-71
2022/04/10 04:42:43;;;;;;;8.18;5.43;;;4.60;99.90;;;;;;5008357;28;20545;-73
2022/04/10 04:45:10;;;;;;;10.05;5.47;;;4.70;99.90;;;;;;5009226;28;20062;-69
2022/04/10 04:47:41;;;;;;;10.55;5.93;;;4.70;99.90;;;;;;5025267;28;20030;-68
2022/04/10 04:50:07;;;;;;;9.90;5.57;;;4.80;99.90;;;;;;5024896;28;20030;-69
2022/04/10 04:52:38;;;;;;;10.65;5.75;;;4.80;99.90;;;;;;5008225;28;20068;-73
2022/04/10 04:55:07;;;;;;;11.20;7.25;;;4.80;99.90;;;;;;5017066;28;20034;-72
2022/04/10 04:57:33;;;;;;;9.70;5.85;;;4.90;99.90;;;;;;5009604;28;20022;-69
2022/04/10 04:59:59;;;;;;;8.90;5.65;;;4.90;99.90;;;;;;5025373;28;20022;-70
2022/04/10 05:02:25;;;;;;;9.10;5.65;;;5.00;99.90;;;;;;5008081;28;20492;-75
2022/04/10 05:04:54;;;;;;;9.68;5.68;;;5.00;99.90;;;;;;5008842;28;20038;-69
2022/04/10 05:07:22;;;;;;;10.82;5.85;;;5.10;99.90;;;;;;5007191;28;20068;-73
2022/04/10 05:09:48;;;;;;;10.70;5.97;;;5.10;99.90;;;;;;5025381;28;20026;-75
2022/04/10 05:12:14;;;;;;;9.00;5.97;;;5.00;99.90;;;;;;5009314;28;20064;-75
2022/04/10 05:14:43;;;;;;;10.82;6.40;;;5.00;99.90;;;;;;5007955;28;20041;-68
2022/04/10 05:17:10;;;;;;;9.50;4.90;;;5.00;99.90;;;;;;5008806;28;20041;-72
2022/04/10 05:19:41;;;;;;;9.95;5.20;;;5.00;99.90;;;;;;5023301;28;20034;-74
2022/04/10 05:22:07;;;;;;;9.45;5.47;;;5.00;99.90;;;;;;5022653;28;20038;-72
2022/04/10 05:24:35;;;;;;;9.38;5.22;;;5.10;99.90;;;;;;5024638;28;20033;-75
2022/04/10 05:27:01;;;;;;;11.32;5.32;;;5.10;99.90;;;;;;5024633;28;20076;-69
2022/04/10 05:29:27;;;;;;;8.50;5.15;;;5.10;99.90;;;;;;5024974;28;20030;-71
2022/04/10 05:31:54;;;;;;;11.25;5.35;;;5.20;99.90;;;;;;5025172;28;20033;-74
2022/04/10 05:34:20;;;;;;;8.98;4.93;;;5.10;99.90;;;;;;5007358;28;20495;-72
2022/04/10 05:36:46;;;;;;;8.93;5.00;;;5.20;99.90;;;;;;5007972;28;20026;-69
2022/04/10 05:39:12;;;;;;;8.00;5.03;;;5.20;99.90;;;;;;5024785;28;20026;-74
2022/04/10 05:41:38;;;;;;;9.68;5.90;;;5.20;99.90;;;;;;5024031;28;20558;-74
2022/04/10 05:44:10;;;;;;;11.30;5.43;;;5.20;99.90;;;;;;5024934;28;20044;-75
2022/04/10 05:46:39;;;;;;;10.13;6.40;;;5.20;99.90;;;;;;4991500;28;20030;-69
2022/04/10 05:49:07;;;;;;;10.45;5.13;;;5.30;99.90;;;;;;5024016;28;20038;-69
2022/04/10 05:51:37;;;;;;;8.80;5.53;;;5.30;99.90;;;;;;4991697;28;20100;-72
2022/04/10 05:54:03;;;;;;;11.15;5.72;;;5.30;99.90;;;;;;5009965;28;20037;-71
2022/04/10 05:56:35;;;;;;;7.05;4.88;;;5.30;99.90;;;;;;5019277;28;20113;-73
2022/04/10 05:59:01;;;;;;;8.55;5.05;;;5.20;99.90;;;;;;5025451;28;20454;-73
2022/04/10 06:01:28;;;;;;;11.65;6.10;;;5.30;99.90;;;;;;4995701;28;20080;-71
2022/04/10 06:03:55;;;;;;;11.45;5.72;;;5.30;99.90;;;;;;5011787;28;20026;-72
2022/04/10 06:06:21;;;;;;;11.68;6.57;;;5.30;99.90;;;;;;5012712;28;20446;-72
2022/04/10 06:08:54;;;;;;;10.07;5.50;;;5.30;99.90;;;;;;4994189;28;20045;-72
2022/04/10 06:11:21;;;;;;;8.55;5.05;;;5.30;99.90;;;;;;4992854;28;20177;-73
2022/04/10 06:13:47;;;;;;;12.50;6.80;;;5.40;99.90;;;;;;4974545;28;20031;-73
2022/04/10 06:16:20;;;;;;;11.10;5.53;;;5.40;99.90;;;;;;4999174;28;21509;-73
2022/04/10 06:18:47;;;;;;;9.43;5.68;;;5.40;99.90;;;;;;5016351;28;20028;-73
2022/04/10 06:21:15;;;;;;;9.30;5.40;;;5.50;99.90;;;;;;5010308;28;20046;-73
2022/04/10 06:23:44;;;;;;;9.07;5.55;;;5.50;99.90;;;;;;5005367;28;20026;-71
2022/04/10 06:26:21;;;;;;;10.93;6.05;;;5.50;99.90;;;;;;4994328;28;20037;-73
2022/04/10 06:29:11;;;;;;;10.25;5.47;;;5.40;99.90;;;;;;5028011;28;20084;-71
2022/04/10 06:32:01;;;;;;;10.05;5.57;;;5.50;99.90;;;;;;5011488;28;20033;-72
2022/04/10 06:34:48;;;;;;;10.82;6.55;;;5.50;99.90;;;;;;4989374;28;20059;-70
2022/04/10 06:37:16;;;;;;;11.40;6.15;;;5.60;99.90;;;;;;5027435;28;20029;-69
2022/04/10 06:39:57;;;;;;;11.35;7.07;;;5.60;99.90;;;;;;5025880;28;20476;-73
2022/04/10 06:42:27;;;;;;;11.80;7.43;;;5.70;99.90;;;;;;5012739;28;20056;-71
2022/04/10 06:45:17;;;;;;;15.07;7.68;;;5.70;99.90;;;;;;5012400;28;20099;-70
2022/04/10 06:48:03;;;;;;;12.32;7.68;;;5.80;99.90;;;;;;5012789;28;20040;-71
2022/04/10 06:50:56;;;;;;;10.75;5.85;;;5.90;99.90;;;;;;4998587;28;20042;-73
2022/04/10 06:53:28;;;;;;;11.95;6.43;;;6.00;99.90;;;;;;4996979;28;20071;-72
2022/04/10 06:55:53;;;;;;;11.52;6.07;;;5.90;99.90;;;;;;5013678;28;20026;-71
2022/04/10 06:58:35;;;;;;;10.50;6.10;;;5.90;99.90;;;;;;5012197;28;20594;-75
2022/04/10 07:01:04;;;;;;;10.48;5.78;;;6.00;99.90;;;;;;5028282;28;20372;-72
2022/04/10 07:03:37;;;;;;;10.95;5.65;;;6.10;99.90;;;;;;5014041;28;20026;-75
2022/04/10 07:06:08;;;;;;;10.70;6.43;;;6.00;99.90;;;;;;5028073;28;20439;-73
2022/04/10 07:09:05;;;;;;;13.85;7.45;;;6.10;99.90;;;;;;5011590;28;20095;-74
2022/04/10 07:11:36;;;;;;;13.07;6.80;;;6.10;99.90;;;;;;5011570;28;20028;-75
2022/04/10 07:14:38;;;;;;;10.43;6.38;;;6.20;99.90;;;;;;5011765;28;20065;-74
2022/04/10 07:17:08;;;;;;;11.48;6.22;;;6.20;99.90;;;;;;5011523;28;20029;-74
2022/04/10 07:19:52;;;;;;;12.85;6.10;;;6.30;99.90;;;;;;5010443;28;20022;-73
2022/04/10 07:25:05;;;;;;;10.18;6.13;;;6.50;99.90;;;;;;5010618;28;20060;-75
2022/04/10 07:27:33;;;;;;;10.68;6.38;;;6.60;99.90;;;;;;5011512;28;20112;-74
2022/04/10 07:30:09;;;;;;;10.52;6.45;;;6.60;99.90;;;;;;4996691;28;20022;-77
2022/04/10 07:32:39;;;;;;;10.88;6.25;;;6.60;99.90;;;;;;5028620;28;20499;-75
2022/04/10 07:35:20;;;;;;;11.45;6.78;;;6.60;99.90;;;;;;5011633;28;20065;-75
2022/04/10 07:37:54;;;;;;;14.93;7.20;;;6.50;99.90;;;;;;5011522;28;20030;-78
2022/04/10 07:40:24;;;;;;;11.85;6.93;;;6.60;99.90;;;;;;5013256;28;20034;-77
2022/04/10 07:42:56;;;;;;;;;;;6.70;99.90;;;;;;5004642;28;20608;-75
2022/04/10 07:48:37;;;;;;;12.30;6.90;;;6.70;99.90;;;;;;5011217;28;20123;-72
2022/04/10 07:51:11;;;;;;;12.70;7.00;;;6.80;99.90;;;;;;5011130;28;20026;-73
2022/04/10 07:53:57;;;;;;;9.23;5.00;;;6.90;99.90;;;;;;5011884;28;20069;-74
2022/04/10 07:56:25;;;;;;;8.32;4.95;;;7.00;99.90;;;;;;5011796;28;20037;-76
2022/04/10 07:58:51;;;;;;;8.75;5.35;;;7.00;99.90;;;;;;5009851;28;20032;-73
2022/04/10 08:01:26;;;;;;;9.98;5.47;;;7.10;99.90;;;;;;5006225;28;20033;-73
2022/04/10 08:03:53;;;;;;;7.80;4.93;;;7.20;99.90;;;;;;4994430;28;20124;-73
2022/04/10 08:06:42;;;;;;;9.05;5.38;;;7.20;99.90;;;;;;5012117;28;20617;-74
2022/04/10 08:09:08;;;;;;;8.95;5.32;;;7.40;99.90;;;;;;5011811;28;20037;-73
2022/04/10 08:11:46;;;;;;;10.95;5.40;;;7.60;99.90;;;;;;5012206;28;20068;-74
2022/04/10 08:14:17;;;;;;;8.70;5.43;;;7.70;99.90;;;;;;5027696;28;20632;-75
2022/04/10 08:16:43;;;;;;;7.45;4.63;;;7.80;99.90;;;;;;5010154;28;20035;-74
2022/04/10 08:19:09;;;;;;;6.88;4.57;;;7.90;99.90;;;;;;5012276;28;20100;-75
2022/04/10 08:21:35;;;;;;;11.82;6.70;;;7.90;99.90;;;;;;5011231;28;20077;-73
2022/04/10 08:24:01;;;;;;;8.27;5.18;;;8.10;99.90;;;;;;5012174;28;20049;-73
2022/04/10 08:26:32;;;;;;;12.30;5.40;;;8.20;99.90;;;;;;5012648;28;20034;-73
2022/04/10 08:29:03;;;;;;;7.22;4.82;;;8.10;99.90;;;;;;5009945;28;20026;-72
2022/04/10 08:31:29;;;;;;;7.00;4.32;;;8.20;99.90;;;;;;5011900;28;20428;-74
2022/04/10 08:33:55;;;;;;;9.70;5.38;;;8.10;99.90;;;;;;5011016;28;20084;-75
2022/04/10 08:36:21;;;;;;;10.07;5.15;;;8.20;99.90;;;;;;5011835;28;20037;-73
2022/04/10 08:38:47;;;;;;;11.75;7.03;;;8.20;99.90;;;;;;5011637;28;20430;-74
2022/04/10 08:41:13;;;;;;;9.63;5.65;;;8.70;99.90;;;;;;5011410;28;20022;-74
2022/04/10 08:43:40;;;;;;;10.50;6.05;;;8.90;99.90;;;;;;5009827;28;20026;-67
2022/04/10 08:46:07;;;;;;;11.25;5.88;;;9.00;99.90;;;;;;5011313;28;20037;-73
2022/04/10 08:48:36;;;;;;;12.02;5.82;;;9.10;99.90;;;;;;5011524;28;20026;-74
2022/04/10 08:51:06;;;;;;;8.95;5.72;;;9.10;99.90;;;;;;5009793;28;20049;-73
2022/04/10 08:53:36;;;;;;;8.63;5.05;;;9.00;99.90;;;;;;5011502;28;20114;-73
2022/04/10 08:56:07;;;;;;;10.48;5.82;;;8.70;99.90;;;;;;4994081;28;20076;-74
2022/04/10 08:58:39;;;;;;;8.85;5.18;;;8.90;99.90;;;;;;5010304;28;20030;-74
2022/04/10 09:01:11;;;;;;;12.70;6.07;;;8.70;99.90;;;;;;5010003;28;20025;-73
2022/04/10 09:03:44;;;;;;;9.27;6.38;;;8.80;99.90;;;;;;5010818;28;20145;-71
2022/04/10 09:07:03;;;;;;;8.15;5.07;;;8.80;99.90;;;;;;5011005;28;20041;-73
2022/04/10 09:09:30;;;;;;;8.63;5.63;;;8.60;99.90;;;;;;5010446;28;20034;-74
2022/04/10 09:11:59;;;;;;;10.65;6.22;;;8.60;99.90;;;;;;5011899;28;20045;-74
2022/04/10 09:14:37;;;;;;;9.82;5.45;;;8.80;99.90;;;;;;5011532;28;20033;-71
2022/04/10 09:17:22;;;;;;;12.07;6.28;;;9.00;99.90;;;;;;5010331;28;20474;-74
2022/04/10 09:19:53;;;;;;;9.90;5.55;;;9.10;99.90;;;;;;4991620;28;20026;-74
2022/04/10 09:23:07;;;;;;;19.75;6.35;;;9.10;99.90;;;;;;4992053;28;20034;-73
2022/04/10 09:25:42;;;;;;;11.40;6.07;;;8.90;99.90;;;;;;5008330;28;20124;-72
2022/04/10 09:28:16;;;;;;;12.50;6.75;;;9.00;99.90;;;;;;5000440;28;20122;-72
2022/04/10 09:30:48;;;;;;;10.27;5.80;;;9.20;99.90;;;;;;5006773;28;20069;-73
2022/04/10 09:33:21;;;;;;;12.13;5.30;;;9.30;99.90;;;;;;5012054;28;20473;-70
2022/04/10 09:35:59;;;;;;;24.52;6.40;;;9.20;99.90;;;;;;4995657;28;20046;-71
2022/04/10 09:38:50;;;;;;;7.43;4.97;;;9.10;99.90;;;;;;5010492;28;20026;-74
2022/04/10 09:41:20;;;;;;;10.13;5.82;;;9.10;99.90;;;;;;5012047;28;20030;-73
2022/04/10 09:43:48;;;;;;;11.43;5.95;;;9.20;99.90;;;;;;5012748;28;20061;-73
2022/04/10 09:46:14;;;;;;;9.93;5.20;;;9.30;99.90;;;;;;5010205;28;20482;-73
2022/04/10 09:48:43;;;;;;;9.02;5.43;;;9.40;99.90;;;;;;4979640;28;20040;-69
2022/04/10 09:51:11;;;;;;;7.22;5.38;;;9.50;99.90;;;;;;4994447;28;20115;-72
2022/04/10 09:53:37;;;;;;;9.40;5.60;;;9.50;99.90;;;;;;5011018;28;20451;-74
2022/04/10 09:56:07;;;;;;;39.58;7.30;;;9.50;99.90;;;;;;4994308;28;20523;-73
2022/04/10 09:58:34;;;;;;;10.43;5.85;;;9.50;99.90;;;;;;4994299;28;20113;-74
2022/04/10 10:01:03;;;;;;;11.15;5.63;;;9.50;99.90;;;;;;5009032;28;20112;-67
2022/04/10 10:03:36;;;;;;;8.40;4.88;;;9.80;99.90;;;;;;5011933;28;20087;-76
2022/04/10 10:06:05;;;;;;;15.52;5.78;;;9.80;99.90;;;;;;5010607;28;20057;-76
2022/04/10 10:08:33;;;;;;;10.55;6.13;;;9.80;99.90;;;;;;5014482;28;20036;-75
2022/04/10 10:11:16;;;;;;;11.10;5.50;;;9.90;99.90;;;;;;5008402;28;20030;-75
2022/04/10 10:13:43;;;;;;;9.90;5.60;;;9.90;99.90;;;;;;5012696;28;20029;-74
2022/04/10 10:16:12;;;;;;;9.98;5.10;;;10.10;99.90;;;;;;5011968;28;20041;-72
2022/04/10 10:18:40;;;;;;;8.35;5.05;;;10.20;99.90;;;;;;5000932;28;20469;-76
2022/04/10 10:21:10;;;;;;;9.05;4.43;;;10.20;99.90;;;;;;5014691;28;20034;-73
2022/04/10 10:23:36;;;;;;;9.57;5.38;;;10.30;99.90;;;;;;5015131;28;20030;-74
2022/04/10 10:26:25;;;;;;;7.95;4.95;;;10.70;99.90;;;;;;5013142;28;20040;-72
2022/04/10 10:29:22;;;;;;;7.00;4.40;;;10.60;99.90;;;;;;5013438;28;20022;-72
2022/04/10 10:32:07;;;;;;;9.82;4.95;;;10.50;99.90;;;;;;5003462;28;20109;-74
2022/04/10 10:34:34;;;;;;;9.25;5.47;;;10.60;99.90;;;;;;5011135;28;20034;-76
2022/04/10 10:37:06;;;;;;;12.02;5.30;;;10.60;99.90;;;;;;4991570;28;20030;-72
2022/04/10 10:40:13;;;;;;;7.82;4.78;;;10.50;99.90;;;;;;5004980;28;20466;-73
2022/04/10 10:42:46;;;;;;;8.80;5.10;;;10.50;99.90;;;;;;5013590;28;20133;-73
2022/04/10 10:45:30;;;;;;;;;;;10.70;99.90;;;;;;5031461;28;20051;-75
2022/04/10 10:48:31;;;;;;;10.82;5.10;;;10.70;99.90;;;;;;5014236;28;19909;-74
2022/04/10 10:51:02;;;;;;;10.85;5.80;;;10.60;99.90;;;;;;4991832;28;20046;-73
2022/04/10 10:53:47;;;;;;;11.50;5.57;;;10.70;99.90;;;;;;4991594;28;20081;-72
2022/04/10 10:56:32;;;;;;;7.35;4.97;;;10.70;99.90;;;;;;4991158;28;20034;-74
2022/04/10 10:59:22;;;;;;;12.15;6.35;;;10.80;99.90;;;;;;4998185;28;20067;-74
2022/04/10 11:02:04;;;;;;;9.02;5.03;;;10.80;99.90;;;;;;4991549;28;20144;-74
2022/04/10 11:04:52;;;;;;;10.77;5.30;;;10.80;99.90;;;;;;4991625;28;20121;-72
2022/04/10 11:07:27;;;;;;;10.32;5.30;;;10.80;99.90;;;;;;4991794;28;20036;-74
2022/04/10 11:10:01;;;;;;;11.60;7.45;;;10.90;99.90;;;;;;4951093;28;20039;-73
2022/04/10 11:12:34;;;;;;;8.02;5.35;;;11.20;99.90;;;;;;4972067;28;20042;-74
2022/04/10 11:15:19;;;;;;;8.70;4.63;;;11.10;99.90;;;;;;4972170;28;20045;-72
2022/04/10 11:17:46;;;;;;;6.22;4.57;;;11.20;99.90;;;;;;4941655;29;20055;-72
2022/04/10 11:20:16;;;;;;;8.30;4.18;;;10.90;99.90;;;;;;4952399;29;20617;-70
2022/04/10 11:22:52;;;;;;;9.32;4.85;;;10.80;99.90;;;;;;4937095;28;20561;-73
2022/04/10 11:25:41;;;;;;;11.30;5.93;;;10.90;99.90;;;;;;4971075;28;20027;-73
2022/04/10 11:28:07;;;;;;;10.88;5.65;;;10.90;99.90;;;;;;4996057;28;20117;-72
2022/04/10 11:30:41;;;;;;;8.88;4.65;;;10.80;99.90;;;;;;5007599;28;20018;-73
2022/04/10 11:33:09;;;;;;;10.25;5.25;;;10.90;99.90;;;;;;4976065;28;20037;-73
2022/04/10 11:35:40;;;;;;;9.57;5.50;;;10.70;99.90;;;;;;5006640;28;20072;-72
2022/04/10 11:38:24;;;;;;;11.43;5.03;;;10.80;99.90;;;;;;4991662;28;20054;-74
2022/04/10 11:40:52;;;;;;;10.02;5.45;;;10.90;99.90;;;;;;4991147;28;20060;-74
2022/04/10 11:43:20;;;;;;;9.82;5.93;;;10.90;99.90;;;;;;4991744;28;20034;-70
2022/04/10 11:45:50;;;;;;;12.18;5.93;;;10.90;99.90;;;;;;4989941;28;20023;-74
2022/04/10 11:48:20;;;;;;;10.10;5.20;;;11.00;99.90;;;;;;4991991;28;20044;-73
2022/04/10 11:50:46;;;;;;;9.57;5.05;;;11.00;99.90;;;;;;5005097;28;20042;-73
2022/04/10 11:53:13;;;;;;;14.75;6.47;;;10.90;99.90;;;;;;5006347;28;20077;-73
2022/04/10 11:55:46;;;;;;;11.10;6.55;;;10.90;99.90;;;;;;5004782;28;20365;-73
2022/04/10 11:58:22;;;;;;;9.60;5.22;;;11.00;99.90;;;;;;4991795;28;20081;-73
2022/04/10 12:00:56;;;;;;;12.60;6.85;;;11.00;99.90;;;;;;5006742;28;20041;-73
2022/04/10 12:03:26;;;;;;;16.17;9.75;;;11.00;99.90;;;;;;5004948;28;20105;-73
2022/04/10 12:05:53;;;;;;;12.68;6.85;;;10.90;99.90;;;;;;5006941;28;20049;-72
2022/04/10 12:08:23;;;;;;;17.35;9.30;;;10.90;97.80;;;;;;5006539;28;20030;-71
2022/04/10 12:10:53;;;;;;;13.10;6.65;;;11.00;99.90;;;;;;5010565;28;20109;-72
2022/04/10 12:13:19;;;;;;;10.15;5.47;;;11.10;97.70;;;;;;4979305;28;20139;-74
2022/04/10 12:16:10;;;;;;;12.50;7.03;;;11.10;98.30;;;;;;5010399;28;20092;-73
2022/04/10 12:18:54;;;;;;;11.52;5.95;;;11.10;98.50;;;;;;5008314;28;20034;-72
2022/04/10 12:21:26;;;;;;;7.57;5.05;;;11.00;96.50;;;;;;5009479;28;20038;-70
2022/04/10 12:24:08;;;;;;;11.63;6.40;;;10.90;98.40;;;;;;5009841;28;20758;-69
2022/04/10 12:26:35;;;;;;;10.82;6.18;;;10.70;98.00;;;;;;4996049;28;20101;-72
2022/04/10 12:29:02;;;;;;;10.40;5.90;;;10.60;99.80;;;;;;5008802;28;20467;-72
2022/04/10 12:31:29;;;;;;;12.18;6.05;;;10.50;99.90;;;;;;4993016;28;20335;-71
2022/04/10 12:33:56;;;;;;;12.90;6.80;;;10.40;99.90;;;;;;5008076;28;20168;-71
2022/04/10 12:36:23;;;;;;;12.93;7.72;;;10.40;99.90;;;;;;4997069;28;20037;-70
2022/04/10 12:38:53;;;;;;;12.00;6.78;;;10.40;99.90;;;;;;5011375;28;20100;-71
2022/04/10 12:41:26;;;;;;;10.77;5.70;;;10.50;99.90;;;;;;5011279;28;20041;-72
2022/04/10 12:44:00;;;;;;;9.23;5.25;;;10.60;99.90;;;;;;5007981;28;20033;-72
2022/04/10 12:46:36;;;;;;;13.63;8.57;;;10.80;99.90;;;;;;5011447;28;20030;-70
2022/04/10 12:49:15;;;;;;;10.90;6.13;;;10.80;99.90;;;;;;5009295;28;20037;-71
2022/04/10 12:51:49;;;;;;;13.68;6.93;;;10.90;99.90;;;;;;4995003;28;20034;-66
2022/04/10 12:54:15;;;;;;;11.10;5.28;;;11.00;99.90;;;;;;4990995;28;20544;-72
2022/04/10 12:56:40;;;;;;;10.05;5.28;;;10.90;98.20;;;;;;4990747;28;20153;-72
2022/04/10 12:59:07;;;;;;;11.30;5.93;;;11.00;97.60;;;;;;5005705;28;20029;-71
2022/04/10 13:01:52;;;;;;;11.25;5.35;;;11.00;98.90;;;;;;5012087;28;20033;-73
2022/04/10 13:04:27;;;;;;;10.48;5.63;;;11.00;94.10;;;;;;5011343;28;20040;-72
2022/04/10 13:06:53;;;;;;;12.70;6.35;;;11.10;95.50;;;;;;5011821;28;20117;-72
2022/04/10 13:09:19;;;;;;;11.52;6.28;;;11.10;92.70;;;;;;5011625;28;20153;-71
2022/04/10 13:11:46;;;;;;;12.23;6.05;;;11.20;94.50;;;;;;5009079;28;20029;-72
2022/04/10 13:14:15;;;;;;;12.27;6.28;;;11.10;91.70;;;;;;5000737;28;20112;-71
2022/04/10 13:16:43;;;;;;;15.13;7.53;;;11.20;94.90;;;;;;4998793;28;20023;-70